Meteo Mondovì

Previsioni per il volo, messo gentilmente a disposizione da www.datameteo.com

per info sul servizio, contattare info@datameteo.it


Metar LIMZ

Available data for LIMZ from the past 2 hours
LEVALDIGI
Metar
LIMZ 221350Z 34004KT 9999 SCT100 07/M03 Q1014

13:50 UTC

Wind: 340° 4kt

Visibility: 9999 m

Sky: SCT 10000 ft

Temp: 7 deg C / 44.6 deg F

Dewpoint: -3 deg C / 26.6 deg F

Pressure: 1014 hPa

TAF
TAF LIMZ 221100Z 2212/2312 24006KT 9999 SCT090

Gif Infrarosso


Gif Nuvole


Ultima immagine Infrarosso


Ultima immagine Nuvole


Gif Pioggia